SBOSBO KLX / LGKL
Speedbird OnlineSpeedbird Online KLX / LGKL

Kalamata Airport
10:46 22°C

Location Kalamata, Greece
Latitude: 37.06829833984375
Longitude: 22.02549934387207
Web Wikipedia
Altitude 8 Meter / 26 Feet
Distance 2,353 KM / 1,462 Miles
from London.
Time Zone UTC +3 hours (Europe/Athens)
Codes IATA: KLX
ICAO: LGKL
Currency £1 equals EUR 1.15
Runways
RunwayLength (m)Surface
17R2703Asphalt
35L2703Asphalt
Radio
TypeDescriptionFrequency
A/GRDO563.7
APPAPP120.75
TWRTWR120.75
Live ATC
METAR LGKL 060720Z 34007KT 9999 FEW035 22/09 Q1023
TAF TAF LGKL 060500Z 0606/0615 34008KT 9999 FEW025 TEMPO 0612/0615 16010KT
Weather As Of 06 Oct 2022 10:46
Description Few clouds
Wind 13 km/h from North (340°)
Cloud Cover 20%
Precipitation Rain: none, Snow: none
Sunrise 07:31
Sunset 19:08
Rotations During the last 90 days there were
37 flights from LHR
10 flights from LGW
37 flights to LHR


© 2017-2022 Speedbird Online